createdAt,value
2022-07-29T00:01:44.148Z,6.82
2022-07-29T00:04:13.248Z,4.18
2022-07-29T00:06:42.409Z,5.30
2022-07-29T00:09:10.636Z,5.07
2022-07-29T00:11:39.088Z,5.45
2022-07-29T00:14:07.753Z,4.90
2022-07-29T00:16:37.910Z,6.93
2022-07-29T00:19:07.788Z,5.43
2022-07-29T00:21:36.364Z,6.47
2022-07-29T00:24:04.868Z,6.10
2022-07-29T00:26:33.641Z,4.55
2022-07-29T00:29:32.463Z,5.70
2022-07-29T00:31:53.205Z,3.92
2022-07-29T00:34:39.114Z,5.53
2022-07-29T00:37:07.839Z,3.83
2022-07-29T00:39:36.325Z,5.70
2022-07-29T00:42:05.865Z,5.90
2022-07-29T00:44:39.968Z,4.55
2022-07-29T00:47:11.069Z,5.28
2022-07-29T00:49:42.633Z,5.20
2022-07-29T00:52:12.889Z,5.90
2022-07-29T00:54:45.537Z,5.90
2022-07-29T00:57:14.683Z,5.47
2022-07-29T00:59:43.613Z,7.53
2022-07-29T01:02:13.344Z,4.25
2022-07-29T01:04:42.751Z,5.03
2022-07-29T01:07:10.989Z,7.53
2022-07-29T01:09:46.647Z,5.07
2022-07-29T01:12:19.990Z,4.72
2022-07-29T01:14:50.135Z,6.85
2022-07-29T01:17:26.288Z,4.15
2022-07-29T01:20:04.883Z,7.15
2022-07-29T01:22:58.507Z,4.68
2022-07-29T01:25:59.361Z,4.72
2022-07-29T01:29:04.057Z,5.65
2022-07-29T01:31:58.629Z,6.18
2022-07-29T01:34:37.985Z,7.05
2022-07-29T01:37:16.116Z,5.63
2022-07-29T01:39:46.022Z,4.80
2022-07-29T01:42:23.203Z,5.13
2022-07-29T01:44:59.966Z,4.85
2022-07-29T01:47:39.804Z,3.58
2022-07-29T01:50:13.614Z,5.95
2022-07-29T01:52:47.455Z,7.35
2022-07-29T01:55:18.132Z,3.85
2022-07-29T01:57:50.741Z,4.40
2022-07-29T02:00:22.019Z,5.03
2022-07-29T02:02:51.898Z,4.85
2022-07-29T02:05:23.161Z,9.18
2022-07-29T02:07:53.321Z,4.65
2022-07-29T02:10:26.498Z,7.07
2022-07-29T02:12:57.611Z,5.05
2022-07-29T02:15:29.990Z,7.70
2022-07-29T02:18:04.079Z,5.82
2022-07-29T02:20:32.741Z,5.53
2022-07-29T02:23:03.245Z,4.00
2022-07-29T02:25:37.038Z,6.03
2022-07-29T02:28:07.961Z,5.40
2022-07-29T02:30:42.889Z,6.55
2022-07-29T02:33:15.572Z,4.93
2022-07-29T02:35:46.037Z,7.00
2022-07-29T02:38:35.403Z,9.13
2022-07-29T02:41:09.659Z,6.18
2022-07-29T02:43:38.875Z,4.68
2022-07-29T02:46:29.181Z,5.40
2022-07-29T02:49:04.808Z,4.35
2022-07-29T02:51:44.963Z,5.57
2022-07-29T02:54:22.866Z,6.68
2022-07-29T02:56:54.676Z,6.10
2022-07-29T02:59:28.143Z,7.05
2022-07-29T03:02:01.538Z,5.50
2022-07-29T03:04:32.034Z,5.25
2022-07-29T03:07:02.431Z,6.20
2022-07-29T03:09:31.994Z,6.35
2022-07-29T03:12:00.791Z,5.88
2022-07-29T03:14:29.310Z,4.45
2022-07-29T03:16:59.735Z,6.22
2022-07-29T03:19:29.610Z,6.25
2022-07-29T03:21:59.731Z,6.07
2022-07-29T03:24:34.334Z,5.63
2022-07-29T03:27:03.954Z,6.43
2022-07-29T03:29:33.433Z,4.00
2022-07-29T03:32:07.392Z,6.03
2022-07-29T03:34:37.827Z,8.23
2022-07-29T03:37:06.891Z,4.75
2022-07-29T03:39:41.873Z,6.20
2022-07-29T03:42:14.939Z,6.78
2022-07-29T03:44:45.878Z,4.72
2022-07-29T03:47:17.116Z,6.30
2022-07-29T03:49:48.817Z,5.78
2022-07-29T03:52:17.796Z,6.07
2022-07-29T03:54:46.110Z,6.28
2022-07-29T03:57:15.467Z,6.32
2022-07-29T03:59:44.272Z,5.55
2022-07-29T04:02:20.092Z,5.25
2022-07-29T04:04:50.124Z,6.75
2022-07-29T04:07:18.749Z,7.93
2022-07-29T04:09:47.306Z,6.85
2022-07-29T04:12:15.805Z,5.82
2022-07-29T04:14:44.213Z,5.05
2022-07-29T04:17:12.445Z,7.40
2022-07-29T04:19:42.022Z,5.90
2022-07-29T04:22:10.214Z,6.18
2022-07-29T04:24:38.477Z,6.90
2022-07-29T04:27:06.644Z,7.47
2022-07-29T04:29:34.783Z,6.95
2022-07-29T04:32:03.145Z,5.82
2022-07-29T04:34:32.589Z,5.57
2022-07-29T04:37:02.206Z,5.22
2022-07-29T04:39:30.657Z,6.82
2022-07-29T04:41:58.980Z,5.20
2022-07-29T04:44:28.669Z,5.43
2022-07-29T04:46:58.769Z,7.40
2022-07-29T04:49:27.808Z,8.02
2022-07-29T04:51:56.263Z,7.55
2022-07-29T04:54:26.014Z,8.70
2022-07-29T04:56:54.591Z,7.68
2022-07-29T04:59:22.815Z,7.00
2022-07-29T05:01:51.062Z,7.70
2022-07-29T05:04:19.900Z,5.65
2022-07-29T05:06:48.607Z,5.78
2022-07-29T05:09:16.857Z,7.72
2022-07-29T05:11:46.835Z,6.00
2022-07-29T05:14:15.705Z,8.65
2022-07-29T05:16:44.732Z,6.35
2022-07-29T05:19:14.625Z,5.70
2022-07-29T05:21:43.449Z,6.07
2022-07-29T05:24:12.869Z,8.18
2022-07-29T05:26:41.892Z,7.25
2022-07-29T05:29:43.202Z,5.60
2022-07-29T05:32:00.395Z,7.00
2022-07-29T05:34:28.870Z,7.88
2022-07-29T05:36:57.513Z,6.97
2022-07-29T05:39:47.159Z,5.47
2022-07-29T05:42:14.308Z,6.25
2022-07-29T05:44:43.968Z,7.65
2022-07-29T05:47:12.507Z,6.88
2022-07-29T05:49:40.779Z,5.10
2022-07-29T05:52:09.119Z,5.78
2022-07-29T05:54:37.545Z,7.43
2022-07-29T05:57:06.336Z,6.25
2022-07-29T05:59:37.775Z,6.40
2022-07-29T06:02:07.597Z,6.32
2022-07-29T06:04:36.181Z,7.72
2022-07-29T06:07:04.392Z,7.40
2022-07-29T06:09:36.225Z,7.80
2022-07-29T06:12:05.596Z,6.00
2022-07-29T06:14:34.004Z,5.22
2022-07-29T06:17:02.319Z,7.65
2022-07-29T06:19:32.019Z,8.80
2022-07-29T06:22:00.321Z,8.55
2022-07-29T06:24:28.557Z,6.72
2022-07-29T06:26:56.921Z,7.28
2022-07-29T06:29:25.292Z,7.95
2022-07-29T06:31:53.476Z,7.07
2022-07-29T06:34:21.628Z,5.47
2022-07-29T06:36:53.703Z,6.55
2022-07-29T06:39:23.305Z,7.10
2022-07-29T06:41:52.597Z,6.78
2022-07-29T06:44:21.016Z,6.28
2022-07-29T06:46:50.777Z,5.80
2022-07-29T06:49:19.204Z,7.45
2022-07-29T06:51:47.611Z,4.68
2022-07-29T06:54:17.984Z,6.20
2022-07-29T06:56:46.751Z,5.25
2022-07-29T06:59:15.547Z,6.60
2022-07-29T07:01:45.413Z,6.53
2022-07-29T07:04:15.251Z,5.53
2022-07-29T07:06:43.673Z,6.07
2022-07-29T07:09:11.820Z,4.72
2022-07-29T07:11:41.395Z,5.93
2022-07-29T07:14:09.583Z,9.35
2022-07-29T07:16:37.872Z,4.47
2022-07-29T07:19:06.151Z,5.35
2022-07-29T07:21:35.281Z,10.32
2022-07-29T07:24:04.529Z,6.95
2022-07-29T07:26:33.217Z,5.43
2022-07-29T07:29:02.800Z,5.30
2022-07-29T07:31:31.315Z,5.07
2022-07-29T07:34:00.022Z,5.72
2022-07-29T07:36:28.194Z,6.38
2022-07-29T07:38:56.385Z,8.30
2022-07-29T07:41:25.401Z,6.50
2022-07-29T07:43:54.115Z,5.07
2022-07-29T07:46:24.001Z,5.25
2022-07-29T07:48:53.304Z,7.75
2022-07-29T07:51:21.929Z,8.35
2022-07-29T07:53:51.315Z,6.97
2022-07-29T07:56:19.727Z,7.75
2022-07-29T07:58:48.391Z,6.38
2022-07-29T08:01:19.937Z,6.78
2022-07-29T08:03:50.082Z,6.55
2022-07-29T08:06:18.695Z,6.53
2022-07-29T08:08:46.967Z,5.05
2022-07-29T08:11:15.590Z,5.43
2022-07-29T08:13:44.172Z,6.55
2022-07-29T08:16:16.318Z,5.95
2022-07-29T08:18:47.259Z,6.70
2022-07-29T08:21:17.751Z,6.25
2022-07-29T08:23:59.573Z,8.43
2022-07-29T08:26:30.142Z,8.85
2022-07-29T08:28:58.416Z,5.88
2022-07-29T08:31:26.716Z,6.07
2022-07-29T08:33:57.226Z,8.18
2022-07-29T08:36:27.044Z,6.38
2022-07-29T08:38:55.825Z,5.45
2022-07-29T08:41:24.855Z,6.22
2022-07-29T08:43:53.926Z,5.40
2022-07-29T08:46:23.637Z,13.48
2022-07-29T08:48:52.647Z,8.25
2022-07-29T08:51:22.706Z,6.15
2022-07-29T08:53:53.466Z,7.22
2022-07-29T08:56:22.883Z,5.88
2022-07-29T08:58:52.723Z,8.52
2022-07-29T09:01:36.166Z,5.55
2022-07-29T09:04:13.924Z,7.38
2022-07-29T09:06:46.566Z,7.78
2022-07-29T09:09:16.978Z,7.28
2022-07-29T09:11:45.812Z,5.95
2022-07-29T09:14:16.364Z,8.98
2022-07-29T09:16:54.528Z,6.47
2022-07-29T09:19:29.737Z,6.65
2022-07-29T09:22:03.085Z,7.57
2022-07-29T09:24:45.433Z,10.07
2022-07-29T09:27:23.099Z,6.18
2022-07-29T09:30:00.124Z,6.45
2022-07-29T09:32:29.227Z,7.00
2022-07-29T09:35:23.276Z,5.28
2022-07-29T09:37:51.872Z,6.88
2022-07-29T09:40:23.813Z,5.90
2022-07-29T09:42:53.882Z,7.90
2022-07-29T09:45:31.388Z,7.50
2022-07-29T09:48:04.044Z,7.60
2022-07-29T09:50:41.167Z,6.50
2022-07-29T09:53:11.344Z,6.63
2022-07-29T09:56:02.595Z,6.65
2022-07-29T09:58:30.902Z,5.18
2022-07-29T10:00:59.455Z,6.78
2022-07-29T10:03:28.376Z,7.35
2022-07-29T10:06:10.503Z,6.88
2022-07-29T10:08:39.463Z,8.30
2022-07-29T10:11:17.031Z,7.45
2022-07-29T10:13:47.644Z,7.80
2022-07-29T10:16:17.762Z,7.55
2022-07-29T10:18:47.839Z,10.48
2022-07-29T10:21:34.860Z,5.90
2022-07-29T10:24:06.921Z,5.60
2022-07-29T10:26:45.712Z,6.40
2022-07-29T10:29:14.591Z,7.75
2022-07-29T10:31:57.013Z,5.40
2022-07-29T10:34:38.989Z,5.10
2022-07-29T10:37:29.448Z,4.85
2022-07-29T10:40:37.376Z,6.43
2022-07-29T10:43:33.858Z,8.30
2022-07-29T10:46:03.711Z,5.72
2022-07-29T10:48:39.412Z,8.15
2022-07-29T10:51:12.690Z,8.00
2022-07-29T10:54:00.798Z,9.43
2022-07-29T10:56:33.691Z,7.72
2022-07-29T11:03:01.433Z,7.18
2022-07-29T11:05:59.816Z,5.95
2022-07-29T11:08:32.279Z,3.97
2022-07-29T11:11:43.819Z,8.82
2022-07-29T11:14:18.597Z,6.43
2022-07-29T11:17:08.766Z,8.55
2022-07-29T11:19:49.304Z,8.02
2022-07-29T11:22:35.297Z,7.05
2022-07-29T11:25:16.794Z,8.70
2022-07-29T11:27:46.213Z,5.38
2022-07-29T11:30:16.659Z,6.90
2022-07-29T11:32:49.610Z,5.97
2022-07-29T11:35:37.553Z,6.50
2022-07-29T11:41:27.546Z,6.35
2022-07-29T11:43:59.510Z,6.07
2022-07-29T11:46:51.375Z,5.20
2022-07-29T11:49:32.236Z,6.00
2022-07-29T11:52:03.829Z,8.45
2022-07-29T11:54:57.155Z,6.68
2022-07-29T11:57:29.551Z,8.88
2022-07-29T12:00:12.242Z,9.40
2022-07-29T12:02:43.199Z,6.35
2022-07-29T12:05:13.358Z,4.85
2022-07-29T12:07:03.883Z,6.30
2022-07-29T12:07:45.410Z,5.65
2022-07-29T12:10:19.728Z,4.80
2022-07-29T12:12:58.131Z,4.63
2022-07-29T12:15:31.471Z,6.88
2022-07-29T12:18:18.595Z,7.50
2022-07-29T12:20:49.801Z,6.95
2022-07-29T12:23:18.801Z,5.88
2022-07-29T12:25:49.889Z,4.57
2022-07-29T12:28:26.891Z,4.40
2022-07-29T12:30:56.271Z,4.38
2022-07-29T12:33:27.517Z,5.05
2022-07-29T12:36:06.992Z,6.78
2022-07-29T12:38:37.141Z,7.53
2022-07-29T12:41:05.879Z,5.03
2022-07-29T12:43:34.297Z,7.13
2022-07-29T12:46:20.375Z,5.82
2022-07-29T12:48:55.714Z,7.55
2022-07-29T12:51:34.170Z,6.30
2022-07-29T12:54:11.604Z,4.97
2022-07-29T12:56:43.290Z,6.03
2022-07-29T12:59:16.528Z,5.32
2022-07-29T13:01:45.269Z,4.88
2022-07-29T13:04:13.857Z,7.32
2022-07-29T13:06:46.010Z,7.47
2022-07-29T13:09:20.049Z,5.25
2022-07-29T13:11:51.093Z,7.10
2022-07-29T13:14:35.107Z,9.02
2022-07-29T13:17:07.681Z,7.65
2022-07-29T13:19:41.394Z,5.32
2022-07-29T13:22:12.546Z,8.90
2022-07-29T13:24:52.739Z,9.82
2022-07-29T13:27:22.984Z,6.93
2022-07-29T13:29:53.474Z,6.18
2022-07-29T13:32:27.897Z,6.18
2022-07-29T13:34:57.569Z,6.50
2022-07-29T13:37:30.773Z,6.78
2022-07-29T13:40:00.250Z,7.47
2022-07-29T13:42:30.394Z,6.57
2022-07-29T13:44:58.658Z,7.50
2022-07-29T13:47:32.660Z,5.80
2022-07-29T13:50:02.056Z,7.40
2022-07-29T13:52:32.190Z,6.90
2022-07-29T13:55:00.476Z,6.50
2022-07-29T13:57:29.223Z,9.25
2022-07-29T13:59:58.023Z,6.03
2022-07-29T14:02:26.494Z,8.45
2022-07-29T14:04:55.555Z,6.82
2022-07-29T14:07:24.896Z,6.00
2022-07-29T14:09:54.694Z,5.30
2022-07-29T14:12:23.538Z,4.78
2022-07-29T14:14:51.941Z,8.65
2022-07-29T14:17:20.157Z,5.25
2022-07-29T14:19:48.908Z,4.68
2022-07-29T14:22:19.644Z,6.43
2022-07-29T14:24:50.517Z,6.28
2022-07-29T14:27:37.893Z,7.22
2022-07-29T14:30:09.365Z,6.50
2022-07-29T14:32:37.671Z,12.35
2022-07-29T14:35:07.348Z,5.50
2022-07-29T14:37:39.940Z,5.22
2022-07-29T14:40:10.857Z,5.32
2022-07-29T14:42:41.656Z,4.55
2022-07-29T14:45:11.629Z,9.05
2022-07-29T14:47:41.408Z,7.65
2022-07-29T14:50:11.227Z,6.90
2022-07-29T14:52:39.629Z,6.55
2022-07-29T14:55:16.712Z,6.40
2022-07-29T14:57:50.902Z,5.68
2022-07-29T15:00:21.292Z,7.50
2022-07-29T15:03:01.875Z,9.00
2022-07-29T15:05:32.062Z,7.80
2022-07-29T15:08:01.367Z,7.00
2022-07-29T15:10:30.332Z,5.32
2022-07-29T15:13:00.412Z,6.90
2022-07-29T15:15:29.021Z,5.60
2022-07-29T15:17:57.348Z,6.68
2022-07-29T15:20:28.048Z,5.20
2022-07-29T15:22:56.936Z,7.32
2022-07-29T15:25:28.240Z,5.18
2022-07-29T15:28:01.125Z,6.50
2022-07-29T15:30:34.564Z,5.82
2022-07-29T15:33:04.862Z,6.38
2022-07-29T15:35:40.087Z,8.73
2022-07-29T15:38:09.354Z,8.18
2022-07-29T15:40:40.201Z,8.90
2022-07-29T15:43:08.445Z,5.22
2022-07-29T15:46:03.658Z,5.50
2022-07-29T15:48:32.411Z,5.85
2022-07-29T15:51:01.403Z,9.30
2022-07-29T15:53:29.888Z,5.78
2022-07-29T15:55:58.444Z,8.77
2022-07-29T15:58:27.015Z,4.63
2022-07-29T16:00:57.240Z,5.85
2022-07-29T16:03:25.498Z,6.10
2022-07-29T16:05:53.752Z,5.45
2022-07-29T16:08:22.065Z,7.65
2022-07-29T16:10:50.323Z,7.05
2022-07-29T16:13:23.229Z,7.05
2022-07-29T16:16:02.925Z,5.50
2022-07-29T16:18:33.569Z,10.63
2022-07-29T16:21:02.727Z,11.20
2022-07-29T16:23:32.678Z,6.10
2022-07-29T16:26:03.522Z,6.18
2022-07-29T16:28:32.205Z,6.22
2022-07-29T16:31:01.634Z,4.68
2022-07-29T16:33:54.948Z,7.47
2022-07-29T16:36:20.187Z,6.78
2022-07-29T16:38:49.679Z,5.78
2022-07-29T16:41:17.855Z,6.38
2022-07-29T16:43:46.276Z,6.40
2022-07-29T16:46:18.607Z,6.43
2022-07-29T16:48:47.546Z,6.07
2022-07-29T16:51:16.835Z,5.47
2022-07-29T16:53:49.858Z,7.25
2022-07-29T16:56:18.850Z,6.85
2022-07-29T16:58:47.184Z,6.45
2022-07-29T17:01:16.091Z,6.47
2022-07-29T17:04:00.230Z,5.65
2022-07-29T17:06:29.825Z,10.57
2022-07-29T17:08:59.486Z,6.25
2022-07-29T17:11:53.424Z,7.07
2022-07-29T17:14:16.192Z,6.22
2022-07-29T17:17:02.078Z,7.55
2022-07-29T17:19:33.789Z,5.18
2022-07-29T17:22:10.514Z,4.03
2022-07-29T17:24:42.883Z,6.85
2022-07-29T17:27:11.854Z,7.15
2022-07-29T17:29:40.907Z,4.90
2022-07-29T17:32:10.464Z,6.15
2022-07-29T17:34:40.127Z,9.57
2022-07-29T17:37:11.211Z,4.95
2022-07-29T17:39:42.144Z,5.40
2022-07-29T17:42:11.918Z,7.18
2022-07-29T17:44:41.750Z,5.22
2022-07-29T17:47:15.662Z,5.38
2022-07-29T17:49:45.410Z,8.50
2022-07-29T17:52:13.784Z,8.00
2022-07-29T17:54:43.446Z,6.43
2022-07-29T17:57:11.658Z,4.95
2022-07-29T17:59:40.099Z,6.68
2022-07-29T18:02:09.991Z,6.32
2022-07-29T18:04:38.379Z,7.07
2022-07-29T18:07:06.705Z,6.65
2022-07-29T18:09:38.877Z,15.60
2022-07-29T18:12:10.208Z,6.13
2022-07-29T18:14:38.923Z,5.75
2022-07-29T18:17:07.216Z,6.78
2022-07-29T18:19:35.631Z,9.15
2022-07-29T18:22:05.126Z,6.65
2022-07-29T18:24:35.866Z,11.65
2022-07-29T18:27:04.085Z,8.50
2022-07-29T18:29:34.770Z,7.28
2022-07-29T18:32:03.227Z,4.85
2022-07-29T18:34:31.991Z,9.90
2022-07-29T18:37:00.656Z,6.53
2022-07-29T18:39:29.152Z,9.88
2022-07-29T18:41:57.433Z,6.22
2022-07-29T18:44:25.803Z,7.65
2022-07-29T18:46:55.958Z,6.65
2022-07-29T18:49:26.142Z,5.85
2022-07-29T18:51:54.637Z,8.68
2022-07-29T18:54:23.165Z,6.85
2022-07-29T18:56:51.312Z,8.27
2022-07-29T18:59:20.664Z,5.95
2022-07-29T19:01:49.654Z,7.80
2022-07-29T19:04:19.662Z,6.40
2022-07-29T19:06:47.929Z,6.22
2022-07-29T19:09:17.521Z,9.23
2022-07-29T19:11:45.979Z,9.20
2022-07-29T19:14:14.522Z,9.32
2022-07-29T19:16:42.741Z,6.97
2022-07-29T19:19:10.965Z,6.80
2022-07-29T19:21:40.524Z,11.48
2022-07-29T19:24:13.577Z,9.77
2022-07-29T19:26:46.848Z,6.90
2022-07-29T19:29:16.052Z,8.38
2022-07-29T19:31:44.883Z,10.13
2022-07-29T19:34:13.398Z,7.88
2022-07-29T19:36:42.982Z,7.03
2022-07-29T19:39:11.528Z,9.82
2022-07-29T19:41:40.016Z,8.63
2022-07-29T19:44:08.245Z,10.00
2022-07-29T19:46:36.439Z,8.77
2022-07-29T19:49:06.550Z,8.95
2022-07-29T19:51:35.052Z,9.13
2022-07-29T19:54:05.930Z,6.28
2022-07-29T19:56:34.393Z,8.98
2022-07-29T19:59:07.360Z,6.40
2022-07-29T20:01:36.010Z,10.05
2022-07-29T20:04:04.399Z,7.22
2022-07-29T20:06:32.594Z,9.18
2022-07-29T20:09:00.864Z,9.52
2022-07-29T20:11:30.714Z,9.05
2022-07-29T20:13:58.857Z,9.65
2022-07-29T20:16:27.026Z,9.32
2022-07-29T20:18:55.257Z,13.30
2022-07-29T20:21:23.683Z,10.10
2022-07-29T20:23:51.874Z,13.23
2022-07-29T20:26:20.464Z,10.48
2022-07-29T20:28:50.471Z,10.65
2022-07-29T20:31:19.819Z,8.85
2022-07-29T20:33:48.113Z,12.10
2022-07-29T20:36:16.844Z,12.48
2022-07-29T20:38:45.025Z,10.35
2022-07-29T20:41:29.528Z,11.73
2022-07-29T20:44:02.579Z,9.13
2022-07-29T20:46:33.883Z,9.40
2022-07-29T20:49:11.883Z,10.20
2022-07-29T20:51:46.732Z,9.63
2022-07-29T20:54:21.732Z,9.20
2022-07-29T20:57:06.858Z,9.23
2022-07-29T20:59:37.214Z,8.45
2022-07-29T21:02:09.378Z,10.98
2022-07-29T21:04:38.120Z,14.80
2022-07-29T21:07:06.303Z,11.45
2022-07-29T21:09:36.911Z,11.82
2022-07-29T21:12:06.538Z,10.68
2022-07-29T21:14:49.395Z,11.80
2022-07-29T21:17:25.852Z,13.70
2022-07-29T21:19:55.363Z,10.80
2022-07-29T21:22:23.927Z,10.70
2022-07-29T21:24:55.326Z,12.18
2022-07-29T21:27:41.350Z,10.52
2022-07-29T21:30:11.745Z,7.85
2022-07-29T21:32:40.048Z,14.43
2022-07-29T21:35:45.256Z,10.88
2022-07-29T21:38:08.529Z,10.55
2022-07-29T21:40:37.810Z,9.43
2022-07-29T21:43:06.023Z,10.88
2022-07-29T21:45:37.989Z,8.85
2022-07-29T21:48:07.151Z,11.07
2022-07-29T21:50:36.597Z,11.13
2022-07-29T21:53:04.767Z,11.07
2022-07-29T21:55:34.146Z,7.63
2022-07-29T21:58:03.837Z,9.65
2022-07-29T22:00:33.822Z,10.68
2022-07-29T22:03:06.764Z,14.90
2022-07-29T22:05:35.439Z,11.32
2022-07-29T22:08:03.907Z,11.75
2022-07-29T22:10:33.509Z,12.85
2022-07-29T22:13:03.153Z,11.77
2022-07-29T22:15:32.318Z,14.55
2022-07-29T22:18:02.186Z,11.20
2022-07-29T22:20:30.384Z,9.15
2022-07-29T22:22:58.570Z,11.02
2022-07-29T22:25:28.553Z,12.52
2022-07-29T22:27:56.748Z,10.07
2022-07-29T22:30:25.060Z,13.02
2022-07-29T22:32:53.231Z,14.00
2022-07-29T22:35:22.810Z,10.77
2022-07-29T22:37:51.166Z,14.63
2022-07-29T22:40:19.459Z,10.90
2022-07-29T22:42:47.700Z,13.88
2022-07-29T22:45:16.023Z,13.07
2022-07-29T22:47:48.439Z,13.50
2022-07-29T22:50:17.858Z,12.35
2022-07-29T22:52:47.940Z,11.63
2022-07-29T22:55:16.810Z,10.95
2022-07-29T22:57:44.989Z,11.07
2022-07-29T23:00:14.915Z,11.50
2022-07-29T23:02:43.110Z,9.90
2022-07-29T23:05:11.700Z,10.18
2022-07-29T23:07:39.873Z,9.90
2022-07-29T23:10:11.326Z,10.23
2022-07-29T23:12:41.941Z,9.85
2022-07-29T23:15:10.511Z,10.80
2022-07-29T23:17:38.678Z,14.48
2022-07-29T23:20:09.891Z,13.57
2022-07-29T23:22:38.483Z,12.65
2022-07-29T23:25:09.718Z,9.57
2022-07-29T23:27:37.943Z,13.63
2022-07-29T23:30:07.742Z,9.82
2022-07-29T23:32:35.936Z,11.50
2022-07-29T23:35:05.588Z,11.73
2022-07-29T23:37:33.828Z,11.77
2022-07-29T23:40:02.199Z,12.38
2022-07-29T23:42:31.738Z,13.10
2022-07-29T23:45:00.153Z,9.32
2022-07-29T23:47:29.063Z,9.82
2022-07-29T23:49:57.361Z,9.23
2022-07-29T23:52:25.664Z,13.45
2022-07-29T23:54:54.101Z,11.75
2022-07-29T23:57:24.120Z,9.85
2022-07-29T23:59:54.255Z,8.80
